Terminal Aerodrome Forecast
Issued by NWS

Home | Current Version | Previous Version | Graphics & Text | Print | Product List | Glossary On
Versions: 1 2 3 4 5 6 7 8 9 10 11 12 13 14 15 16 17 18 19 20 21 22 23 24 25 26 27 28 29 30 31 32
000
FTUS45 KGGW 230535
TAFGDV
TAF
KGDV 230535Z 2306/2406 36005KT P6SM SCT020 OVC060
     FM230900 36005KT P6SM OVC035
     FM231300 01005KT 5SM BR BKN025
     FM231900 06007KT P6SM VCSH BKN025
     FM240100 04006KT P6SM VCSH OVC020=

USA.gov is the U.S. government's official web portal to all federal, state and local government web resources and services.